createdAt,value
2022-08-17T00:00:09.172Z,17.70
2022-08-17T00:03:17.784Z,17.75
2022-08-17T00:06:28.043Z,17.98
2022-08-17T00:09:43.559Z,17.10
2022-08-17T00:12:43.611Z,16.50
2022-08-17T00:15:00.485Z,16.58
2022-08-17T00:17:27.970Z,17.30
2022-08-17T00:19:54.884Z,17.13
2022-08-17T00:22:34.290Z,17.40
2022-08-17T00:25:12.086Z,17.23
2022-08-17T00:27:39.045Z,17.98
2022-08-17T00:30:08.761Z,18.25
2022-08-17T00:33:15.480Z,17.33
2022-08-17T00:35:35.139Z,17.02
2022-08-17T00:38:04.118Z,17.67
2022-08-17T00:40:40.012Z,17.58
2022-08-17T00:43:37.298Z,18.00
2022-08-17T00:46:08.409Z,19.48
2022-08-17T00:49:56.981Z,18.05
2022-08-17T00:52:46.948Z,17.00
2022-08-17T00:56:09.461Z,17.13
2022-08-17T00:58:37.380Z,18.38
2022-08-17T01:01:06.176Z,18.15
2022-08-17T01:03:33.702Z,18.00
2022-08-17T01:06:01.677Z,18.55
2022-08-17T01:08:31.614Z,18.38
2022-08-17T01:11:04.119Z,16.88
2022-08-17T01:13:40.789Z,17.45
2022-08-17T01:16:29.027Z,17.33
2022-08-17T01:18:59.611Z,16.95
2022-08-17T01:21:43.967Z,17.20
2022-08-17T01:24:10.874Z,17.38
2022-08-17T01:26:39.946Z,16.38
2022-08-17T01:29:07.096Z,17.42
2022-08-17T01:31:40.130Z,17.05
2022-08-17T01:34:09.420Z,19.17
2022-08-17T01:36:57.057Z,18.48
2022-08-17T01:39:34.440Z,19.65
2022-08-17T01:42:17.946Z,19.88
2022-08-17T01:44:51.624Z,18.40
2022-08-17T01:47:39.589Z,18.33
2022-08-17T01:53:59.574Z,19.67
2022-08-17T01:56:37.306Z,20.52
2022-08-17T02:01:53.233Z,20.50
2022-08-17T02:04:27.389Z,20.90
2022-08-17T02:07:11.145Z,20.25
2022-08-17T02:09:54.832Z,18.35
2022-08-17T02:18:47.619Z,18.33
2022-08-17T02:21:31.052Z,17.55
2022-08-17T02:29:32.668Z,17.80
2022-08-17T02:39:01.346Z,16.02
2022-08-17T02:42:03.652Z,15.70
2022-08-17T02:44:39.132Z,16.08
2022-08-17T02:47:08.576Z,16.10
2022-08-17T02:49:35.975Z,16.45
2022-08-17T02:52:53.402Z,16.40
2022-08-17T02:55:55.121Z,17.00
2022-08-17T03:06:34.888Z,17.73
2022-08-17T03:14:20.859Z,19.30
2022-08-17T03:59:26.025Z,21.80
2022-08-17T04:03:42.254Z,21.90
2022-08-17T04:06:30.007Z,23.50
2022-08-17T04:09:43.219Z,22.92
2022-08-17T04:21:12.346Z,21.83
2022-08-17T04:26:53.785Z,22.52
2022-08-17T04:29:55.183Z,22.10
2022-08-17T04:33:10.555Z,23.45
2022-08-17T04:36:05.357Z,22.92
2022-08-17T04:39:33.965Z,22.48
2022-08-17T04:42:20.109Z,21.42
2022-08-17T04:44:50.353Z,21.20
2022-08-17T04:47:17.456Z,20.23
2022-08-17T04:49:47.651Z,20.45
2022-08-17T04:52:43.701Z,21.92
2022-08-17T04:55:33.191Z,21.00
2022-08-17T04:58:11.904Z,20.80
2022-08-17T05:00:39.915Z,20.23
2022-08-17T05:03:06.965Z,19.35
2022-08-17T05:05:36.685Z,19.30
2022-08-17T05:08:06.241Z,19.80
2022-08-17T05:10:35.715Z,18.02
2022-08-17T05:13:15.459Z,19.08
2022-08-17T05:15:45.209Z,17.85
2022-08-17T05:18:15.625Z,17.17
2022-08-17T05:20:43.083Z,16.23
2022-08-17T05:23:12.956Z,15.35
2022-08-17T05:25:47.370Z,14.95
2022-08-17T05:28:16.762Z,15.20
2022-08-17T05:30:48.625Z,14.95
2022-08-17T05:33:17.243Z,14.57
2022-08-17T05:35:49.255Z,14.40
2022-08-17T05:38:18.075Z,13.75
2022-08-17T05:40:45.890Z,15.02
2022-08-17T05:43:17.737Z,13.85
2022-08-17T05:46:22.283Z,13.38
2022-08-17T05:49:08.652Z,14.93
2022-08-17T05:51:55.465Z,14.45
2022-08-17T05:54:30.360Z,13.23
2022-08-17T05:57:02.191Z,12.32
2022-08-17T05:59:34.936Z,11.20
2022-08-17T06:05:11.111Z,11.00
2022-08-17T06:07:41.088Z,10.52
2022-08-17T06:10:37.188Z,9.50
2022-08-17T06:13:36.375Z,9.05
2022-08-17T06:16:33.721Z,9.02
2022-08-17T06:19:06.638Z,9.30
2022-08-17T06:21:36.447Z,9.35
2022-08-17T06:24:08.561Z,8.50
2022-08-17T06:26:43.151Z,8.95
2022-08-17T06:29:37.260Z,8.25
2022-08-17T06:32:05.757Z,7.88
2022-08-17T06:34:33.925Z,8.15
2022-08-17T06:37:09.115Z,8.18
2022-08-17T06:39:50.763Z,8.40
2022-08-17T06:43:05.150Z,8.02
2022-08-17T06:45:44.148Z,8.25
2022-08-17T06:48:25.610Z,8.60
2022-08-17T06:51:00.046Z,8.88
2022-08-17T06:53:32.190Z,8.15
2022-08-17T06:56:07.097Z,9.07
2022-08-17T06:58:35.734Z,9.25
2022-08-17T07:01:18.215Z,8.75
2022-08-17T07:04:00.238Z,10.32
2022-08-17T07:06:38.068Z,10.52
2022-08-17T07:09:31.925Z,9.82
2022-08-17T07:12:03.212Z,10.30
2022-08-17T07:14:36.504Z,9.23
2022-08-17T07:17:14.926Z,9.90
2022-08-17T07:19:45.436Z,8.45
2022-08-17T07:22:57.719Z,8.32
2022-08-17T07:25:21.447Z,8.20
2022-08-17T07:27:52.645Z,7.65
2022-08-17T07:30:23.572Z,7.43
2022-08-17T07:33:03.716Z,7.20
2022-08-17T07:35:40.873Z,6.57
2022-08-17T07:38:22.218Z,7.05
2022-08-17T07:40:59.285Z,7.30
2022-08-17T07:46:38.547Z,7.38
2022-08-17T07:49:08.740Z,7.00
2022-08-17T07:51:57.176Z,6.97
2022-08-17T07:54:39.475Z,7.65
2022-08-17T07:57:15.213Z,7.35
2022-08-17T08:00:01.246Z,8.25
2022-08-17T08:02:40.297Z,6.90
2022-08-17T08:05:44.284Z,7.18
2022-08-17T08:08:42.411Z,7.18
2022-08-17T08:11:15.736Z,6.90
2022-08-17T08:13:45.769Z,8.25
2022-08-17T08:16:24.704Z,8.57
2022-08-17T08:19:01.742Z,8.15
2022-08-17T08:21:49.383Z,8.25
2022-08-17T08:24:31.387Z,8.35
2022-08-17T08:27:21.144Z,7.35
2022-08-17T08:29:48.001Z,8.45
2022-08-17T08:32:40.904Z,8.70
2022-08-17T08:35:31.025Z,8.45
2022-08-17T08:38:49.024Z,8.50
2022-08-17T08:41:19.313Z,7.32
2022-08-17T08:44:13.716Z,7.43
2022-08-17T08:46:47.259Z,6.95
2022-08-17T08:50:03.525Z,8.43
2022-08-17T08:53:01.306Z,8.75
2022-08-17T08:55:34.560Z,9.60
2022-08-17T08:58:07.542Z,9.48
2022-08-17T09:00:56.825Z,10.10
2022-08-17T09:03:51.788Z,9.57
2022-08-17T09:06:37.527Z,10.13
2022-08-17T09:09:38.882Z,10.30
2022-08-17T09:12:13.887Z,12.27
2022-08-17T09:14:47.065Z,11.20
2022-08-17T09:17:42.358Z,10.30
2022-08-17T09:20:28.691Z,12.05
2022-08-17T09:22:59.878Z,11.57
2022-08-17T09:25:32.659Z,11.57
2022-08-17T09:28:06.868Z,9.43
2022-08-17T09:31:04.265Z,11.05
2022-08-17T09:33:35.643Z,11.40
2022-08-17T09:36:05.858Z,11.85
2022-08-17T09:38:52.948Z,11.35
2022-08-17T09:41:34.184Z,9.85
2022-08-17T09:44:02.986Z,9.93
2022-08-17T09:46:34.728Z,9.00
2022-08-17T09:49:33.924Z,9.55
2022-08-17T09:52:25.697Z,9.32
2022-08-17T09:54:54.773Z,8.77
2022-08-17T09:57:31.690Z,9.75
2022-08-17T10:00:18.646Z,9.82
2022-08-17T10:02:55.470Z,10.02
2022-08-17T10:05:28.211Z,9.60
2022-08-17T10:10:36.086Z,9.90
2022-08-17T10:13:35.426Z,9.02
2022-08-17T10:16:23.171Z,9.23
2022-08-17T10:19:27.413Z,9.30
2022-08-17T10:22:32.774Z,9.52
2022-08-17T10:25:23.729Z,8.80
2022-08-17T10:27:55.282Z,10.27
2022-08-17T10:30:27.285Z,9.88
2022-08-17T10:33:00.375Z,9.33
2022-08-17T10:35:33.927Z,9.10
2022-08-17T10:38:16.038Z,9.20
2022-08-17T10:40:57.537Z,8.70
2022-08-17T10:43:35.474Z,7.93
2022-08-17T10:46:30.376Z,8.15
2022-08-17T10:49:18.452Z,8.27
2022-08-17T10:51:48.024Z,7.72
2022-08-17T10:54:24.197Z,8.13
2022-08-17T10:56:53.076Z,7.43
2022-08-17T10:59:35.134Z,7.78
2022-08-17T11:02:14.333Z,7.80
2022-08-17T11:05:15.198Z,8.75
2022-08-17T11:08:05.554Z,8.05
2022-08-17T11:10:46.468Z,8.23
2022-08-17T11:13:39.621Z,7.75
2022-08-17T11:16:08.497Z,6.80
2022-08-17T11:19:08.520Z,6.97
2022-08-17T11:21:41.478Z,7.38
2022-08-17T11:24:27.596Z,6.45
2022-08-17T11:27:27.236Z,7.78
2022-08-17T11:30:01.450Z,6.43
2022-08-17T11:32:47.539Z,7.40
2022-08-17T11:35:21.638Z,7.18
2022-08-17T11:37:51.157Z,7.22
2022-08-17T11:40:53.487Z,7.10
2022-08-17T11:43:25.447Z,8.05
2022-08-17T11:46:10.791Z,8.90
2022-08-17T11:49:08.046Z,7.10
2022-08-17T11:52:01.150Z,7.45
2022-08-17T11:54:33.665Z,6.15
2022-08-17T11:57:26.580Z,6.85
2022-08-17T11:59:55.133Z,6.55
2022-08-17T12:02:38.723Z,6.65
2022-08-17T12:05:14.621Z,6.68
2022-08-17T12:08:20.209Z,6.60
2022-08-17T12:11:09.156Z,5.55
2022-08-17T12:13:43.011Z,6.90
2022-08-17T12:16:14.787Z,6.47
2022-08-17T12:18:52.768Z,6.50
2022-08-17T12:21:26.086Z,6.28
2022-08-17T12:24:06.544Z,5.18
2022-08-17T12:26:36.691Z,5.57
2022-08-17T12:29:07.150Z,6.38
2022-08-17T12:31:47.528Z,5.32
2022-08-17T12:34:26.901Z,5.50
2022-08-17T12:37:03.170Z,6.43
2022-08-17T12:39:33.983Z,5.68
2022-08-17T12:42:03.013Z,5.03
2022-08-17T12:44:33.697Z,5.63
2022-08-17T12:47:29.459Z,5.75
2022-08-17T12:50:08.332Z,5.25
2022-08-17T12:52:59.704Z,5.35
2022-08-17T12:55:32.536Z,4.90
2022-08-17T12:58:02.026Z,6.18
2022-08-17T13:00:41.046Z,5.63
2022-08-17T13:03:23.718Z,5.57
2022-08-17T13:06:03.962Z,5.80
2022-08-17T13:08:37.639Z,5.53
2022-08-17T13:11:16.566Z,5.20
2022-08-17T13:13:46.464Z,5.55
2022-08-17T13:16:17.015Z,6.07
2022-08-17T13:18:45.463Z,5.82
2022-08-17T13:21:26.686Z,5.93
2022-08-17T13:24:04.655Z,6.07
2022-08-17T13:26:43.236Z,6.22
2022-08-17T13:29:25.867Z,6.93
2022-08-17T13:32:01.113Z,6.45
2022-08-17T13:35:11.560Z,6.30
2022-08-17T13:37:34.760Z,6.50
2022-08-17T13:40:05.239Z,6.13
2022-08-17T13:42:52.157Z,5.90
2022-08-17T13:45:36.227Z,6.20
2022-08-17T13:48:21.552Z,5.72
2022-08-17T13:50:49.904Z,5.63
2022-08-17T13:53:24.530Z,5.15
2022-08-17T13:55:56.893Z,5.18
2022-08-17T13:58:40.627Z,5.75
2022-08-17T14:01:29.754Z,5.25
2022-08-17T14:03:57.785Z,5.55
2022-08-17T14:06:52.539Z,5.70
2022-08-17T14:09:24.253Z,6.15
2022-08-17T14:11:52.029Z,6.03
2022-08-17T14:14:19.196Z,5.95
2022-08-17T14:16:46.057Z,6.40
2022-08-17T14:19:13.980Z,6.70
2022-08-17T14:21:42.994Z,6.55
2022-08-17T14:24:20.199Z,6.57
2022-08-17T14:26:47.428Z,6.82
2022-08-17T14:29:15.439Z,7.50
2022-08-17T14:31:42.451Z,6.82
2022-08-17T14:36:45.423Z,7.72
2022-08-17T14:39:16.282Z,8.25
2022-08-17T14:41:43.354Z,9.35
2022-08-17T14:44:13.781Z,7.60
2022-08-17T14:46:42.986Z,6.95
2022-08-17T14:49:11.393Z,6.80
2022-08-17T14:51:39.707Z,6.75
2022-08-17T14:54:33.053Z,7.47
2022-08-17T14:57:15.585Z,7.60
2022-08-17T14:59:49.214Z,7.40
2022-08-17T15:02:29.648Z,6.68
2022-08-17T15:05:06.085Z,6.38
2022-08-17T15:07:33.107Z,7.22
2022-08-17T15:10:02.480Z,7.45
2022-08-17T15:12:34.592Z,7.55
2022-08-17T15:15:05.405Z,6.97
2022-08-17T15:17:54.677Z,7.45
2022-08-17T15:20:28.095Z,7.20
2022-08-17T15:22:56.095Z,7.22
2022-08-17T15:25:27.596Z,6.50
2022-08-17T15:27:55.921Z,7.78
2022-08-17T15:30:23.416Z,7.05
2022-08-17T15:32:55.096Z,6.50
2022-08-17T15:35:27.359Z,7.22
2022-08-17T15:38:11.529Z,6.85
2022-08-17T15:40:43.830Z,7.10
2022-08-17T15:43:27.646Z,7.25
2022-08-17T15:45:59.905Z,7.40
2022-08-17T15:48:41.165Z,7.30
2022-08-17T15:51:27.404Z,7.80
2022-08-17T15:53:59.651Z,7.55
2022-08-17T15:56:31.766Z,7.70
2022-08-17T15:58:59.051Z,8.15
2022-08-17T16:02:07.743Z,7.65
2022-08-17T16:04:29.532Z,8.32
2022-08-17T16:06:58.885Z,8.05
2022-08-17T16:09:26.417Z,9.68
2022-08-17T16:11:55.573Z,7.50
2022-08-17T16:14:24.230Z,8.20
2022-08-17T16:16:51.693Z,10.02
2022-08-17T16:19:18.909Z,7.75
2022-08-17T16:21:45.772Z,10.43
2022-08-17T16:24:12.737Z,10.98
2022-08-17T16:26:41.280Z,12.30
2022-08-17T16:29:12.571Z,12.75
2022-08-17T16:31:41.787Z,13.77
2022-08-17T16:34:16.775Z,14.05
2022-08-17T16:36:55.507Z,15.77
2022-08-17T16:39:28.942Z,15.52
2022-08-17T16:41:57.768Z,17.13
2022-08-17T16:44:33.381Z,16.33
2022-08-17T16:47:03.405Z,17.25
2022-08-17T16:49:37.495Z,17.60
2022-08-17T16:52:07.387Z,18.00
2022-08-17T16:54:35.577Z,17.45
2022-08-17T16:57:05.068Z,17.95
2022-08-17T16:59:40.258Z,18.60
2022-08-17T17:02:14.321Z,18.52
2022-08-17T17:04:48.494Z,21.27
2022-08-17T17:07:34.796Z,19.40
2022-08-17T17:10:09.607Z,19.73
2022-08-17T17:13:01.586Z,19.30
2022-08-17T17:15:31.543Z,18.55
2022-08-17T17:18:07.322Z,17.98
2022-08-17T17:20:45.802Z,17.40
2022-08-17T17:23:48.574Z,19.02
2022-08-17T17:26:27.793Z,19.25
2022-08-17T17:29:18.227Z,20.58
2022-08-17T17:32:10.431Z,19.63
2022-08-17T17:34:38.425Z,19.50
2022-08-17T17:37:13.548Z,20.20
2022-08-17T17:39:48.964Z,20.75
2022-08-17T17:42:20.785Z,19.48
2022-08-17T17:44:53.640Z,20.98
2022-08-17T17:47:23.815Z,21.13
2022-08-17T17:49:50.828Z,21.00
2022-08-17T17:52:31.212Z,20.27
2022-08-17T17:55:04.513Z,23.52
2022-08-17T17:58:17.859Z,24.52
2022-08-17T18:01:11.565Z,22.90
2022-08-17T18:06:31.336Z,25.70
2022-08-17T18:09:53.764Z,26.63
2022-08-17T18:12:36.311Z,28.70
2022-08-17T18:15:20.030Z,28.92
2022-08-17T18:18:00.877Z,29.17
2022-08-17T18:20:36.031Z,29.60
2022-08-17T18:23:15.445Z,30.13
2022-08-17T18:25:44.673Z,30.58
2022-08-17T18:28:26.636Z,31.58
2022-08-17T18:31:18.633Z,33.63
2022-08-17T18:33:49.299Z,35.00
2022-08-17T18:36:31.104Z,36.20
2022-08-17T18:39:15.671Z,36.85
2022-08-17T18:41:48.018Z,37.50
2022-08-17T18:44:25.590Z,38.07
2022-08-17T18:47:05.518Z,37.47
2022-08-17T18:49:33.291Z,35.53
2022-08-17T18:52:26.029Z,37.42
2022-08-17T18:55:05.458Z,37.22
2022-08-17T18:57:38.086Z,36.80
2022-08-17T19:00:22.374Z,36.65
2022-08-17T19:02:56.500Z,36.17
2022-08-17T19:05:40.199Z,35.33
2022-08-17T19:08:31.240Z,36.00
2022-08-17T19:11:04.737Z,35.70
2022-08-17T19:13:54.634Z,36.30
2022-08-17T19:16:59.486Z,35.70
2022-08-17T19:19:51.819Z,35.78
2022-08-17T19:22:28.949Z,36.20
2022-08-17T19:25:09.299Z,34.92
2022-08-17T19:27:46.331Z,36.10
2022-08-17T19:30:16.966Z,36.47
2022-08-17T19:32:43.933Z,35.58
2022-08-17T19:35:17.149Z,36.30
2022-08-17T19:37:53.769Z,35.60
2022-08-17T19:40:48.938Z,35.63
2022-08-17T19:43:47.848Z,34.17
2022-08-17T19:46:31.929Z,36.10
2022-08-17T19:49:15.846Z,36.40
2022-08-17T19:51:52.169Z,36.25
2022-08-17T19:54:28.781Z,38.25
2022-08-17T19:57:16.999Z,37.30
2022-08-17T19:59:56.188Z,38.83
2022-08-17T20:02:46.099Z,36.25
2022-08-17T20:06:01.388Z,37.33
2022-08-17T20:08:38.794Z,35.92
2022-08-17T20:11:14.937Z,37.35
2022-08-17T20:13:54.897Z,36.28
2022-08-17T20:16:22.421Z,35.53
2022-08-17T20:18:55.756Z,35.78
2022-08-17T20:21:37.310Z,37.30
2022-08-17T20:24:39.400Z,36.65
2022-08-17T20:27:12.273Z,38.22
2022-08-17T20:30:05.514Z,39.17
2022-08-17T20:32:52.495Z,36.85
2022-08-17T20:35:25.857Z,37.67
2022-08-17T20:38:14.548Z,37.20
2022-08-17T20:40:57.482Z,41.08
2022-08-17T20:43:33.463Z,35.75
2022-08-17T20:46:09.336Z,33.75
2022-08-17T20:48:43.365Z,35.95
2022-08-17T20:51:22.951Z,33.80
2022-08-17T20:53:49.780Z,40.00
2022-08-17T20:56:44.351Z,36.13
2022-08-17T20:59:25.562Z,34.35
2022-08-17T21:02:13.834Z,33.53
2022-08-17T21:04:52.933Z,32.33
2022-08-17T21:07:43.592Z,22.90
2022-08-17T21:10:21.433Z,23.35
2022-08-17T21:13:15.282Z,18.70
2022-08-17T21:15:48.613Z,18.10
2022-08-17T21:18:30.731Z,18.52
2022-08-17T21:20:57.529Z,18.77
2022-08-17T21:23:55.376Z,17.50
2022-08-17T21:26:30.324Z,11.52
2022-08-17T21:29:29.893Z,12.02
2022-08-17T21:32:05.515Z,10.77
2022-08-17T21:34:44.209Z,13.50
2022-08-17T21:37:20.426Z,10.55
2022-08-17T21:39:52.043Z,11.10
2022-08-17T21:42:29.806Z,10.45
2022-08-17T21:45:08.513Z,9.50
2022-08-17T21:47:35.399Z,10.13
2022-08-17T21:50:24.027Z,8.18
2022-08-17T21:52:54.123Z,8.48
2022-08-17T21:55:30.638Z,8.80
2022-08-17T21:58:13.341Z,8.70
2022-08-17T22:00:44.762Z,7.95
2022-08-17T22:03:24.072Z,8.43
2022-08-17T22:05:57.271Z,9.50
2022-08-17T22:08:51.562Z,9.30
2022-08-17T22:16:28.599Z,10.07
2022-08-17T22:19:04.084Z,10.40
2022-08-17T22:21:33.618Z,11.13
2022-08-17T22:24:35.673Z,10.38
2022-08-17T22:27:10.421Z,10.77
2022-08-17T22:30:01.081Z,11.48
2022-08-17T22:32:46.780Z,11.55
2022-08-17T22:35:19.943Z,11.95
2022-08-17T22:37:46.964Z,13.02
2022-08-17T22:40:26.027Z,13.25
2022-08-17T22:42:53.811Z,12.65
2022-08-17T22:45:25.391Z,12.43
2022-08-17T22:48:12.486Z,12.98
2022-08-17T22:50:41.431Z,12.38
2022-08-17T22:53:54.485Z,12.50
2022-08-17T22:56:53.815Z,12.47
2022-08-17T23:00:51.365Z,12.68
2022-08-17T23:09:25.128Z,14.10
2022-08-17T23:12:28.439Z,15.38
2022-08-17T23:35:40.445Z,20.77
2022-08-17T23:59:50.612Z,20.65
